sensor_id;sensor_type;location;lat;lon;timestamp;pressure;altitude;pressure_sealevel;temperature
73734;BMP280;62039;50.000;9.064;2023-06-24T00:00:25;101168.28;;;18.98
73734;BMP280;62039;50.000;9.064;2023-06-24T00:02:52;101170.47;;;18.95
73734;BMP280;62039;50.000;9.064;2023-06-24T00:05:19;101178.19;;;18.90
73734;BMP280;62039;50.000;9.064;2023-06-24T00:07:48;101173.28;;;18.87
73734;BMP280;62039;50.000;9.064;2023-06-24T00:10:15;101174.84;;;18.81
73734;BMP280;62039;50.000;9.064;2023-06-24T00:12:58;101174.63;;;18.76
73734;BMP280;62039;50.000;9.064;2023-06-24T00:15:25;101177.84;;;18.71
73734;BMP280;62039;50.000;9.064;2023-06-24T00:17:52;101171.50;;;18.66
73734;BMP280;62039;50.000;9.064;2023-06-24T00:20:19;101171.25;;;18.61
73734;BMP280;62039;50.000;9.064;2023-06-24T00:22:48;101170.84;;;18.57
73734;BMP280;62039;50.000;9.064;2023-06-24T00:25:15;101168.78;;;18.53
73734;BMP280;62039;50.000;9.064;2023-06-24T00:27:42;101172.78;;;18.49
73734;BMP280;62039;50.000;9.064;2023-06-24T00:30:11;101170.75;;;18.44
73734;BMP280;62039;50.000;9.064;2023-06-24T00:32:38;101182.50;;;18.41
73734;BMP280;62039;50.000;9.064;2023-06-24T00:35:06;101177.63;;;18.38
73734;BMP280;62039;50.000;9.064;2023-06-24T00:37:33;101171.69;;;18.36
73734;BMP280;62039;50.000;9.064;2023-06-24T00:40:03;101169.41;;;18.33
73734;BMP280;62039;50.000;9.064;2023-06-24T00:42:30;101170.63;;;18.31
73734;BMP280;62039;50.000;9.064;2023-06-24T00:44:57;101167.53;;;18.27
73734;BMP280;62039;50.000;9.064;2023-06-24T00:47:25;101168.56;;;18.26
73734;BMP280;62039;50.000;9.064;2023-06-24T00:49:53;101179.47;;;18.23
73734;BMP280;62039;50.000;9.064;2023-06-24T00:52:19;101170.91;;;18.21
73734;BMP280;62039;50.000;9.064;2023-06-24T00:54:46;101178.25;;;18.19
73734;BMP280;62039;50.000;9.064;2023-06-24T00:57:17;101179.25;;;18.18
73734;BMP280;62039;50.000;9.064;2023-06-24T00:59:47;101187.53;;;18.15
73734;BMP280;62039;50.000;9.064;2023-06-24T01:02:14;101190.56;;;18.12
73734;BMP280;62039;50.000;9.064;2023-06-24T01:04:41;101186.28;;;18.11
73734;BMP280;62039;50.000;9.064;2023-06-24T01:07:08;101187.47;;;18.09
73734;BMP280;62039;50.000;9.064;2023-06-24T01:09:35;101185.22;;;18.06
73734;BMP280;62039;50.000;9.064;2023-06-24T01:12:03;101183.78;;;18.03
73734;BMP280;62039;50.000;9.064;2023-06-24T01:14:33;101185.78;;;18.01
73734;BMP280;62039;50.000;9.064;2023-06-24T01:17:09;101192.28;;;17.98
73734;BMP280;62039;50.000;9.064;2023-06-24T01:19:58;101189.00;;;17.96
73734;BMP280;62039;50.000;9.064;2023-06-24T01:22:52;101200.75;;;17.94
73734;BMP280;62039;50.000;9.064;2023-06-24T01:25:34;101198.50;;;17.91
73734;BMP280;62039;50.000;9.064;2023-06-24T01:31:23;101198.25;;;17.86
73734;BMP280;62039;50.000;9.064;2023-06-24T01:33:57;101194.97;;;17.84
73734;BMP280;62039;50.000;9.064;2023-06-24T01:36:25;101195.13;;;17.82
73734;BMP280;62039;50.000;9.064;2023-06-24T01:38:57;101200.59;;;17.81
73734;BMP280;62039;50.000;9.064;2023-06-24T01:41:31;101198.97;;;17.80
73734;BMP280;62039;50.000;9.064;2023-06-24T01:43:59;101201.00;;;17.78
73734;BMP280;62039;50.000;9.064;2023-06-24T01:46:29;101199.34;;;17.77
73734;BMP280;62039;50.000;9.064;2023-06-24T01:49:00;101195.25;;;17.74
73734;BMP280;62039;50.000;9.064;2023-06-24T01:51:28;101191.34;;;17.70
73734;BMP280;62039;50.000;9.064;2023-06-24T01:54:00;101192.34;;;17.69
73734;BMP280;62039;50.000;9.064;2023-06-24T01:56:28;101197.81;;;17.68
73734;BMP280;62039;50.000;9.064;2023-06-24T01:58:57;101200.84;;;17.64
73734;BMP280;62039;50.000;9.064;2023-06-24T02:01:25;101194.94;;;17.62
73734;BMP280;62039;50.000;9.064;2023-06-24T02:03:56;101195.94;;;17.61
73734;BMP280;62039;50.000;9.064;2023-06-24T02:06:25;101197.94;;;17.59
73734;BMP280;62039;50.000;9.064;2023-06-24T02:08:53;101190.34;;;17.56
73734;BMP280;62039;50.000;9.064;2023-06-24T02:11:22;101189.72;;;17.54
73734;BMP280;62039;50.000;9.064;2023-06-24T02:13:51;101195.38;;;17.51
73734;BMP280;62039;50.000;9.064;2023-06-24T02:16:20;101194.75;;;17.49
73734;BMP280;62039;50.000;9.064;2023-06-24T02:18:48;101194.09;;;17.47
73734;BMP280;62039;50.000;9.064;2023-06-24T02:21:18;101191.63;;;17.46
73734;BMP280;62039;50.000;9.064;2023-06-24T02:23:46;101179.81;;;17.42
73734;BMP280;62039;50.000;9.064;2023-06-24T02:26:14;101182.63;;;17.40
73734;BMP280;62039;50.000;9.064;2023-06-24T02:28:43;101182.00;;;17.38
73734;BMP280;62039;50.000;9.064;2023-06-24T02:31:12;101178.09;;;17.34
73734;BMP280;62039;50.000;9.064;2023-06-24T02:33:39;101185.41;;;17.32
73734;BMP280;62039;50.000;9.064;2023-06-24T02:36:07;101182.13;;;17.30
73734;BMP280;62039;50.000;9.064;2023-06-24T02:38:36;101185.94;;;17.27
73734;BMP280;62039;50.000;9.064;2023-06-24T02:41:03;101193.41;;;17.24
73734;BMP280;62039;50.000;9.064;2023-06-24T02:43:30;101193.75;;;17.21
73734;BMP280;62039;50.000;9.064;2023-06-24T02:45:58;101192.13;;;17.20
73734;BMP280;62039;50.000;9.064;2023-06-24T02:48:26;101192.50;;;17.17
73734;BMP280;62039;50.000;9.064;2023-06-24T02:50:55;101194.66;;;17.13
73734;BMP280;62039;50.000;9.064;2023-06-24T02:53:22;101181.03;;;17.10
73734;BMP280;62039;50.000;9.064;2023-06-24T02:55:52;101184.66;;;17.09
73734;BMP280;62039;50.000;9.064;2023-06-24T02:58:21;101186.03;;;17.05
73734;BMP280;62039;50.000;9.064;2023-06-24T03:00:48;101191.50;;;17.03
73734;BMP280;62039;50.000;9.064;2023-06-24T03:03:16;101194.31;;;17.02
73734;BMP280;62039;50.000;9.064;2023-06-24T03:05:44;101182.28;;;16.99
73734;BMP280;62039;50.000;9.064;2023-06-24T03:08:11;101183.50;;;16.97
73734;BMP280;62039;50.000;9.064;2023-06-24T03:10:39;101189.94;;;16.94
73734;BMP280;62039;50.000;9.064;2023-06-24T03:13:09;101200.66;;;16.93
73734;BMP280;62039;50.000;9.064;2023-06-24T03:15:36;101201.03;;;16.90
73734;BMP280;62039;50.000;9.064;2023-06-24T03:18:03;101199.53;;;16.87
73734;BMP280;62039;50.000;9.064;2023-06-24T03:20:30;101198.94;;;16.85
73734;BMP280;62039;50.000;9.064;2023-06-24T03:22:57;101201.75;;;16.83
73734;BMP280;62039;50.000;9.064;2023-06-24T03:25:24;101197.63;;;16.81
73734;BMP280;62039;50.000;9.064;2023-06-24T03:27:51;101205.72;;;16.79
73734;BMP280;62039;50.000;9.064;2023-06-24T03:30:20;101210.19;;;16.79
73734;BMP280;62039;50.000;9.064;2023-06-24T03:32:47;101213.38;;;16.74
73734;BMP280;62039;50.000;9.064;2023-06-24T03:35:14;101212.53;;;16.74
73734;BMP280;62039;50.000;9.064;2023-06-24T03:37:41;101206.81;;;16.70
73734;BMP280;62039;50.000;9.064;2023-06-24T03:40:09;101213.09;;;16.69
73734;BMP280;62039;50.000;9.064;2023-06-24T03:42:36;101214.09;;;16.68
73734;BMP280;62039;50.000;9.064;2023-06-24T03:45:04;101213.44;;;16.66
73734;BMP280;62039;50.000;9.064;2023-06-24T03:47:33;101221.34;;;16.66
73734;BMP280;62039;50.000;9.064;2023-06-24T03:50:00;101218.09;;;16.64
73734;BMP280;62039;50.000;9.064;2023-06-24T03:52:27;101225.34;;;16.62
73734;BMP280;62039;50.000;9.064;2023-06-24T03:54:54;101218.44;;;16.61
73734;BMP280;62039;50.000;9.064;2023-06-24T03:57:21;101223.72;;;16.61
73734;BMP280;62039;50.000;9.064;2023-06-24T03:59:48;101229.97;;;16.60
73734;BMP280;62039;50.000;9.064;2023-06-24T04:02:15;101232.63;;;16.60
73734;BMP280;62039;50.000;9.064;2023-06-24T04:04:45;101226.53;;;16.60
73734;BMP280;62039;50.000;9.064;2023-06-24T04:07:12;101227.34;;;16.60
73734;BMP280;62039;50.000;9.064;2023-06-24T04:09:39;101231.78;;;16.60
73734;BMP280;62039;50.000;9.064;2023-06-24T04:12:06;101225.69;;;16.59
73734;BMP280;62039;50.000;9.064;2023-06-24T04:14:33;101226.53;;;16.60
73734;BMP280;62039;50.000;9.064;2023-06-24T04:17:00;101229.97;;;16.60
73734;BMP280;62039;50.000;9.064;2023-06-24T04:19:27;101237.06;;;16.60
73734;BMP280;62039;50.000;9.064;2023-06-24T04:21:57;101238.72;;;16.61
73734;BMP280;62039;50.000;9.064;2023-06-24T04:24:24;101241.19;;;16.62
73734;BMP280;62039;50.000;9.064;2023-06-24T04:26:51;101235.91;;;16.62
73734;BMP280;62039;50.000;9.064;2023-06-24T04:29:18;101239.19;;;16.64
73734;BMP280;62039;50.000;9.064;2023-06-24T04:31:45;101239.81;;;16.66
73734;BMP280;62039;50.000;9.064;2023-06-24T04:34:12;101236.00;;;16.69
73734;BMP280;62039;50.000;9.064;2023-06-24T04:36:39;101236.47;;;16.72
73734;BMP280;62039;50.000;9.064;2023-06-24T04:39:08;101242.38;;;16.74
73734;BMP280;62039;50.000;9.064;2023-06-24T04:41:35;101237.59;;;16.78
73734;BMP280;62039;50.000;9.064;2023-06-24T04:44:02;101244.31;;;16.80
73734;BMP280;62039;50.000;9.064;2023-06-24T04:46:29;101251.72;;;16.85
73734;BMP280;62039;50.000;9.064;2023-06-24T04:48:56;101247.69;;;16.89
73734;BMP280;62039;50.000;9.064;2023-06-24T04:51:23;101246.19;;;16.95
73734;BMP280;62039;50.000;9.064;2023-06-24T04:53:50;101254.38;;;17.00
73734;BMP280;62039;50.000;9.064;2023-06-24T04:56:20;101252.03;;;17.05
73734;BMP280;62039;50.000;9.064;2023-06-24T04:58:47;101248.69;;;17.11
73734;BMP280;62039;50.000;9.064;2023-06-24T05:01:16;101247.13;;;17.16
73734;BMP280;62039;50.000;9.064;2023-06-24T05:03:44;101249.84;;;17.23
73734;BMP280;62039;50.000;9.064;2023-06-24T05:06:11;101253.59;;;17.29
73734;BMP280;62039;50.000;9.064;2023-06-24T05:08:38;101251.84;;;17.36
73734;BMP280;62039;50.000;9.064;2023-06-24T05:11:05;101261.50;;;17.43
73734;BMP280;62039;50.000;9.064;2023-06-24T05:13:34;101264.88;;;17.52
73734;BMP280;62039;50.000;9.064;2023-06-24T05:16:01;101258.06;;;17.57
73734;BMP280;62039;50.000;9.064;2023-06-24T05:18:28;101264.25;;;17.64
73734;BMP280;62039;50.000;9.064;2023-06-24T05:20:55;101266.00;;;17.72
73734;BMP280;62039;50.000;9.064;2023-06-24T05:23:22;101273.78;;;17.80
73734;BMP280;62039;50.000;9.064;2023-06-24T05:25:49;101259.47;;;17.89
73734;BMP280;62039;50.000;9.064;2023-06-24T05:28:16;101267.13;;;17.99
73734;BMP280;62039;50.000;9.064;2023-06-24T05:30:46;101265.78;;;18.10
73734;BMP280;62039;50.000;9.064;2023-06-24T05:33:13;101261.03;;;18.20
73734;BMP280;62039;50.000;9.064;2023-06-24T05:35:40;101264.84;;;18.32
73734;BMP280;62039;50.000;9.064;2023-06-24T05:38:09;101270.25;;;18.45
73734;BMP280;62039;50.000;9.064;2023-06-24T05:40:36;101259.97;;;18.57
73734;BMP280;62039;50.000;9.064;2023-06-24T05:43:03;101267.03;;;18.71
73734;BMP280;62039;50.000;9.064;2023-06-24T05:45:30;101268.31;;;18.81
73734;BMP280;62039;50.000;9.064;2023-06-24T05:47:59;101269.25;;;18.95
73734;BMP280;62039;50.000;9.064;2023-06-24T05:50:26;101278.34;;;19.07
73734;BMP280;62039;50.000;9.064;2023-06-24T05:52:53;101261.69;;;19.20
73734;BMP280;62039;50.000;9.064;2023-06-24T05:55:20;101266.25;;;19.33
73734;BMP280;62039;50.000;9.064;2023-06-24T05:57:47;101261.03;;;19.46
73734;BMP280;62039;50.000;9.064;2023-06-24T06:00:15;101264.59;;;19.59
73734;BMP280;62039;50.000;9.064;2023-06-24T06:02:42;101267.28;;;19.73
73734;BMP280;62039;50.000;9.064;2023-06-24T06:05:11;101265.31;;;19.88
73734;BMP280;62039;50.000;9.064;2023-06-24T06:07:38;101268.81;;;20.02
73734;BMP280;62039;50.000;9.064;2023-06-24T06:10:06;101276.41;;;20.18
73734;BMP280;62039;50.000;9.064;2023-06-24T06:12:34;101271.13;;;20.31
73734;BMP280;62039;50.000;9.064;2023-06-24T06:15:00;101274.44;;;20.46
73734;BMP280;62039;50.000;9.064;2023-06-24T06:17:27;101270.75;;;20.60
73734;BMP280;62039;50.000;9.064;2023-06-24T06:19:54;101268.75;;;20.75
73734;BMP280;62039;50.000;9.064;2023-06-24T06:22:24;101258.72;;;20.91
73734;BMP280;62039;50.000;9.064;2023-06-24T06:24:51;101260.13;;;21.06
73734;BMP280;62039;50.000;9.064;2023-06-24T06:27:18;101249.84;;;21.23
73734;BMP280;62039;50.000;9.064;2023-06-24T06:29:46;101257.84;;;21.36
73734;BMP280;62039;50.000;9.064;2023-06-24T06:32:13;101252.50;;;21.49
73734;BMP280;62039;50.000;9.064;2023-06-24T06:34:40;101253.00;;;21.65
73734;BMP280;62039;50.000;9.064;2023-06-24T06:37:07;101257.84;;;21.81
73734;BMP280;62039;50.000;9.064;2023-06-24T06:39:37;101253.13;;;21.96
73734;BMP280;62039;50.000;9.064;2023-06-24T06:42:04;101252.00;;;22.10
73734;BMP280;62039;50.000;9.064;2023-06-24T06:44:31;101250.66;;;22.26
73734;BMP280;62039;50.000;9.064;2023-06-24T06:46:58;101247.69;;;22.41
73734;BMP280;62039;50.000;9.064;2023-06-24T06:49:25;101256.78;;;22.58
73734;BMP280;62039;50.000;9.064;2023-06-24T06:51:54;101248.25;;;22.74
73734;BMP280;62039;50.000;9.064;2023-06-24T06:54:21;101251.59;;;22.88
73734;BMP280;62039;50.000;9.064;2023-06-24T06:56:51;101240.97;;;23.06
73734;BMP280;62039;50.000;9.064;2023-06-24T06:59:18;101240.63;;;23.21
73734;BMP280;62039;50.000;9.064;2023-06-24T07:01:45;101237.38;;;23.37
73734;BMP280;62039;50.000;9.064;2023-06-24T07:04:12;101240.44;;;23.52
73734;BMP280;62039;50.000;9.064;2023-06-24T07:06:39;101241.50;;;23.69
73734;BMP280;62039;50.000;9.064;2023-06-24T07:09:06;101240.88;;;23.85
73734;BMP280;62039;50.000;9.064;2023-06-24T07:11:33;101239.78;;;24.05
73734;BMP280;62039;50.000;9.064;2023-06-24T07:14:02;101236.22;;;24.22
73734;BMP280;62039;50.000;9.064;2023-06-24T07:16:29;101238.47;;;24.37
73734;BMP280;62039;50.000;9.064;2023-06-24T07:18:56;101230.56;;;24.54
73734;BMP280;62039;50.000;9.064;2023-06-24T07:21:23;101223.19;;;24.68
73734;BMP280;62039;50.000;9.064;2023-06-24T07:23:51;101226.91;;;24.78
73734;BMP280;62039;50.000;9.064;2023-06-24T07:26:17;101233.84;;;24.91
73734;BMP280;62039;50.000;9.064;2023-06-24T07:28:44;101225.22;;;25.00
73734;BMP280;62039;50.000;9.064;2023-06-24T07:31:35;101224.19;;;25.13
73734;BMP280;62039;50.000;9.064;2023-06-24T07:34:03;101219.88;;;25.24
73734;BMP280;62039;50.000;9.064;2023-06-24T07:36:30;101219.03;;;25.35
73734;BMP280;62039;50.000;9.064;2023-06-24T07:38:57;101219.00;;;25.47
73734;BMP280;62039;50.000;9.064;2023-06-24T07:41:24;101220.81;;;25.58
73734;BMP280;62039;50.000;9.064;2023-06-24T07:43:51;101219.94;;;25.69
73734;BMP280;62039;50.000;9.064;2023-06-24T07:46:18;101218.03;;;25.81
73734;BMP280;62039;50.000;9.064;2023-06-24T07:48:47;101219.63;;;25.94
73734;BMP280;62039;50.000;9.064;2023-06-24T07:51:14;101224.31;;;26.03
73734;BMP280;62039;50.000;9.064;2023-06-24T07:53:41;101223.94;;;26.11
73734;BMP280;62039;50.000;9.064;2023-06-24T07:56:08;101227.38;;;26.24
73734;BMP280;62039;50.000;9.064;2023-06-24T07:58:36;101227.56;;;26.34
73734;BMP280;62039;50.000;9.064;2023-06-24T08:01:03;101226.41;;;26.46
73734;BMP280;62039;50.000;9.064;2023-06-24T08:03:30;101222.56;;;26.59
73734;BMP280;62039;50.000;9.064;2023-06-24T08:06:00;101214.22;;;26.72
73734;BMP280;62039;50.000;9.064;2023-06-24T08:08:27;101212.47;;;26.83
73734;BMP280;62039;50.000;9.064;2023-06-24T08:10:54;101219.84;;;26.92
73734;BMP280;62039;50.000;9.064;2023-06-24T08:13:21;101215.69;;;27.02
73734;BMP280;62039;50.000;9.064;2023-06-24T08:15:48;101215.56;;;27.13
73734;BMP280;62039;50.000;9.064;2023-06-24T08:18:15;101208.22;;;27.25
73734;BMP280;62039;50.000;9.064;2023-06-24T08:20:42;101206.44;;;27.36
73734;BMP280;62039;50.000;9.064;2023-06-24T08:23:11;101205.75;;;27.46
73734;BMP280;62039;50.000;9.064;2023-06-24T08:25:38;101202.38;;;27.55
73734;BMP280;62039;50.000;9.064;2023-06-24T08:28:05;101204.06;;;27.61
73734;BMP280;62039;50.000;9.064;2023-06-24T08:30:32;101196.59;;;27.68
73734;BMP280;62039;50.000;9.064;2023-06-24T08:32:59;101206.91;;;27.77
73734;BMP280;62039;50.000;9.064;2023-06-24T08:35:26;101196.22;;;27.82
73734;BMP280;62039;50.000;9.064;2023-06-24T08:37:53;101194.06;;;27.84
73734;BMP280;62039;50.000;9.064;2023-06-24T08:40:23;101197.31;;;27.86
73734;BMP280;62039;50.000;9.064;2023-06-24T08:42:50;101197.31;;;27.86
73734;BMP280;62039;50.000;9.064;2023-06-24T08:45:17;101197.34;;;27.91
73734;BMP280;62039;50.000;9.064;2023-06-24T08:47:46;101196.09;;;27.98
73734;BMP280;62039;50.000;9.064;2023-06-24T08:50:15;101192.94;;;28.06
73734;BMP280;62039;50.000;9.064;2023-06-24T08:52:47;101188.66;;;28.10
73734;BMP280;62039;50.000;9.064;2023-06-24T08:55:16;101194.66;;;28.18
73734;BMP280;62039;50.000;9.064;2023-06-24T08:57:46;101193.94;;;28.27
73734;BMP280;62039;50.000;9.064;2023-06-24T09:00:14;101204.72;;;28.37
73734;BMP280;62039;50.000;9.064;2023-06-24T09:02:42;101199.72;;;28.51
73734;BMP280;62039;50.000;9.064;2023-06-24T09:05:09;101189.34;;;28.65
73734;BMP280;62039;50.000;9.064;2023-06-24T09:07:36;101189.97;;;28.82
73734;BMP280;62039;50.000;9.064;2023-06-24T09:10:04;101194.06;;;28.95
73734;BMP280;62039;50.000;9.064;2023-06-24T09:12:32;101194.38;;;29.03
73734;BMP280;62039;50.000;9.064;2023-06-24T09:15:03;101194.44;;;29.13
73734;BMP280;62039;50.000;9.064;2023-06-24T09:17:30;101177.25;;;29.24
73734;BMP280;62039;50.000;9.064;2023-06-24T09:20:03;101179.44;;;29.38
73734;BMP280;62039;50.000;9.064;2023-06-24T09:22:30;101171.66;;;29.51
73734;BMP280;62039;50.000;9.064;2023-06-24T09:25:00;101174.94;;;29.63
73734;BMP280;62039;50.000;9.064;2023-06-24T09:27:31;101172.78;;;29.71
73734;BMP280;62039;50.000;9.064;2023-06-24T09:29:58;101169.00;;;29.77
73734;BMP280;62039;50.000;9.064;2023-06-24T09:32:29;101160.41;;;29.85
73734;BMP280;62039;50.000;9.064;2023-06-24T09:34:56;101158.25;;;29.92
73734;BMP280;62039;50.000;9.064;2023-06-24T09:37:25;101152.31;;;29.90
73734;BMP280;62039;50.000;9.064;2023-06-24T09:39:52;101154.72;;;29.86
73734;BMP280;62039;50.000;9.064;2023-06-24T09:42:21;101149.63;;;29.85
73734;BMP280;62039;50.000;9.064;2023-06-24T09:44:52;101145.03;;;29.85
73734;BMP280;62039;50.000;9.064;2023-06-24T09:47:19;101138.56;;;29.86
73734;BMP280;62039;50.000;9.064;2023-06-24T09:49:49;101136.16;;;29.90
73734;BMP280;62039;50.000;9.064;2023-06-24T09:52:17;101128.34;;;29.88
73734;BMP280;62039;50.000;9.064;2023-06-24T09:54:46;101129.69;;;29.86
73734;BMP280;62039;50.000;9.064;2023-06-24T09:57:14;101127.81;;;29.86
73734;BMP280;62039;50.000;9.064;2023-06-24T09:59:41;101122.69;;;29.90
73734;BMP280;62039;50.000;9.064;2023-06-24T10:02:13;101119.19;;;29.94
73734;BMP280;62039;50.000;9.064;2023-06-24T10:04:41;101118.34;;;29.99
73734;BMP280;62039;50.000;9.064;2023-06-24T10:07:13;101118.09;;;30.05
73734;BMP280;62039;50.000;9.064;2023-06-24T10:09:40;101109.22;;;30.10
73734;BMP280;62039;50.000;9.064;2023-06-24T10:12:08;101111.91;;;30.15
73734;BMP280;62039;50.000;9.064;2023-06-24T10:14:36;101112.72;;;30.16
73734;BMP280;62039;50.000;9.064;2023-06-24T10:17:04;101118.09;;;30.21
73734;BMP280;62039;50.000;9.064;2023-06-24T10:19:37;101102.16;;;30.29
73734;BMP280;62039;50.000;9.064;2023-06-24T10:22:07;101094.84;;;30.40
73734;BMP280;62039;50.000;9.064;2023-06-24T10:24:38;101090.00;;;30.52
73734;BMP280;62039;50.000;9.064;2023-06-24T10:27:08;101091.81;;;30.62
73734;BMP280;62039;50.000;9.064;2023-06-24T10:29:36;101088.53;;;30.75
73734;BMP280;62039;50.000;9.064;2023-06-24T10:32:05;101082.28;;;30.84
73734;BMP280;62039;50.000;9.064;2023-06-24T10:34:42;101078.47;;;30.96
73734;BMP280;62039;50.000;9.064;2023-06-24T10:37:11;101077.84;;;31.09
73734;BMP280;62039;50.000;9.064;2023-06-24T10:39:46;101075.59;;;31.21
73734;BMP280;62039;50.000;9.064;2023-06-24T10:42:37;101070.13;;;31.31
73734;BMP280;62039;50.000;9.064;2023-06-24T10:45:20;101068.97;;;31.42
73734;BMP280;62039;50.000;9.064;2023-06-24T10:47:48;101072.41;;;31.53
73734;BMP280;62039;50.000;9.064;2023-06-24T10:50:17;101062.09;;;31.60
73734;BMP280;62039;50.000;9.064;2023-06-24T10:52:46;101064.47;;;31.61
73734;BMP280;62039;50.000;9.064;2023-06-24T10:55:17;101058.53;;;31.65
73734;BMP280;62039;50.000;9.064;2023-06-24T10:57:45;101056.84;;;31.69
73734;BMP280;62039;50.000;9.064;2023-06-24T11:00:13;101056.25;;;31.77
73734;BMP280;62039;50.000;9.064;2023-06-24T11:02:41;101048.09;;;31.82
73734;BMP280;62039;50.000;9.064;2023-06-24T11:22:10;101031.75;;;31.97
73734;BMP280;62039;50.000;9.064;2023-06-24T11:24:37;101033.19;;;31.89
73734;BMP280;62039;50.000;9.064;2023-06-24T11:27:05;101017.50;;;31.91
73734;BMP280;62039;50.000;9.064;2023-06-24T11:29:33;101011.22;;;31.96
73734;BMP280;62039;50.000;9.064;2023-06-24T11:32:01;101014.44;;;31.98
73734;BMP280;62039;50.000;9.064;2023-06-24T11:34:28;101011.00;;;31.92
73734;BMP280;62039;50.000;9.064;2023-06-24T11:36:55;101004.88;;;31.87
73734;BMP280;62039;50.000;9.064;2023-06-24T11:39:26;100998.66;;;31.86
73734;BMP280;62039;50.000;9.064;2023-06-24T11:41:54;101005.97;;;31.81
73734;BMP280;62039;50.000;9.064;2023-06-24T11:44:24;101011.66;;;31.79
73734;BMP280;62039;50.000;9.064;2023-06-24T11:46:51;101012.22;;;31.76
73734;BMP280;62039;50.000;9.064;2023-06-24T11:49:19;101006.28;;;31.74
73734;BMP280;62039;50.000;9.064;2023-06-24T11:51:47;101000.75;;;31.66
73734;BMP280;62039;50.000;9.064;2023-06-24T11:54:16;100994.63;;;31.55
73734;BMP280;62039;50.000;9.064;2023-06-24T11:56:49;100991.75;;;31.46
73734;BMP280;62039;50.000;9.064;2023-06-24T11:59:18;100991.28;;;31.39
73734;BMP280;62039;50.000;9.064;2023-06-24T12:01:46;100988.88;;;31.38
73734;BMP280;62039;50.000;9.064;2023-06-24T12:04:18;100985.91;;;31.39
73734;BMP280;62039;50.000;9.064;2023-06-24T12:06:45;100992.84;;;31.45
73734;BMP280;62039;50.000;9.064;2023-06-24T12:09:12;100987.91;;;31.52
73734;BMP280;62039;50.000;9.064;2023-06-24T12:11:40;100992.66;;;31.60
73734;BMP280;62039;50.000;9.064;2023-06-24T12:14:09;100989.06;;;31.70
73734;BMP280;62039;50.000;9.064;2023-06-24T12:16:37;100983.34;;;31.77
73734;BMP280;62039;50.000;9.064;2023-06-24T12:19:04;100985.72;;;31.83
73734;BMP280;62039;50.000;9.064;2023-06-24T12:21:31;100981.06;;;31.89
73734;BMP280;62039;50.000;9.064;2023-06-24T12:23:58;100976.69;;;31.93
73734;BMP280;62039;50.000;9.064;2023-06-24T12:26:25;100967.50;;;31.94
73734;BMP280;62039;50.000;9.064;2023-06-24T12:28:54;100969.91;;;31.95
73734;BMP280;62039;50.000;9.064;2023-06-24T12:31:24;100961.22;;;31.98
73734;BMP280;62039;50.000;9.064;2023-06-24T12:33:51;100960.94;;;32.00
73734;BMP280;62039;50.000;9.064;2023-06-24T12:36:18;100965.75;;;32.03
73734;BMP280;62039;50.000;9.064;2023-06-24T12:38:45;100955.47;;;32.05
73734;BMP280;62039;50.000;9.064;2023-06-24T12:41:12;100948.09;;;32.11
73734;BMP280;62039;50.000;9.064;2023-06-24T12:43:40;100942.94;;;32.14
73734;BMP280;62039;50.000;9.064;2023-06-24T12:46:07;100947.28;;;32.10
73734;BMP280;62039;50.000;9.064;2023-06-24T12:48:36;100943.25;;;32.08
73734;BMP280;62039;50.000;9.064;2023-06-24T12:51:03;100938.66;;;32.08
73734;BMP280;62039;50.000;9.064;2023-06-24T12:53:30;100928.09;;;32.12
73734;BMP280;62039;50.000;9.064;2023-06-24T12:55:57;100925.13;;;32.13
73734;BMP280;62039;50.000;9.064;2023-06-24T12:58:24;100930.44;;;32.18
73734;BMP280;62039;50.000;9.064;2023-06-24T13:00:51;100929.06;;;32.21
73734;BMP280;62039;50.000;9.064;2023-06-24T13:03:18;100927.94;;;32.27
73734;BMP280;62039;50.000;9.064;2023-06-24T13:05:48;100925.34;;;32.35
73734;BMP280;62039;50.000;9.064;2023-06-24T13:08:15;100930.09;;;32.44
73734;BMP280;62039;50.000;9.064;2023-06-24T13:10:42;100927.53;;;32.52
73734;BMP280;62039;50.000;9.064;2023-06-24T13:13:09;100928.78;;;32.60
73734;BMP280;62039;50.000;9.064;2023-06-24T13:15:36;100930.84;;;32.68
73734;BMP280;62039;50.000;9.064;2023-06-24T13:18:03;100924.25;;;32.74
73734;BMP280;62039;50.000;9.064;2023-06-24T13:33:41;100916.81;;;32.98
73734;BMP280;62039;50.000;9.064;2023-06-24T13:36:13;100910.59;;;32.98
73734;BMP280;62039;50.000;9.064;2023-06-24T13:38:52;100922.72;;;33.00
73734;BMP280;62039;50.000;9.064;2023-06-24T13:41:19;100908.59;;;33.03
73734;BMP280;62039;50.000;9.064;2023-06-24T13:43:46;100903.69;;;33.05
73734;BMP280;62039;50.000;9.064;2023-06-24T13:46:13;100906.09;;;33.07
73734;BMP280;62039;50.000;9.064;2023-06-24T13:48:42;100901.72;;;33.11
73734;BMP280;62039;50.000;9.064;2023-06-24T13:51:09;100907.13;;;33.11
73734;BMP280;62039;50.000;9.064;2023-06-24T13:53:36;100904.94;;;33.13
73734;BMP280;62039;50.000;9.064;2023-06-24T13:56:04;100907.34;;;33.14
73734;BMP280;62039;50.000;9.064;2023-06-24T13:58:31;100894.31;;;33.17
73734;BMP280;62039;50.000;9.064;2023-06-24T14:00:57;100896.72;;;33.18
73734;BMP280;62039;50.000;9.064;2023-06-24T14:03:24;100891.00;;;33.20
73734;BMP280;62039;50.000;9.064;2023-06-24T14:05:54;100884.19;;;33.22
73734;BMP280;62039;50.000;9.064;2023-06-24T14:08:21;100885.00;;;33.23
73734;BMP280;62039;50.000;9.064;2023-06-24T14:10:48;100882.78;;;33.25
73734;BMP280;62039;50.000;9.064;2023-06-24T14:13:15;100889.31;;;33.24
73734;BMP280;62039;50.000;9.064;2023-06-24T14:15:42;100883.09;;;33.23
73734;BMP280;62039;50.000;9.064;2023-06-24T14:18:09;100875.28;;;33.22
73734;BMP280;62039;50.000;9.064;2023-06-24T14:20:36;100873.97;;;33.19
73734;BMP280;62039;50.000;9.064;2023-06-24T14:23:06;100870.75;;;33.17
73734;BMP280;62039;50.000;9.064;2023-06-24T14:25:33;100865.75;;;33.10
73734;BMP280;62039;50.000;9.064;2023-06-24T14:28:00;100866.22;;;32.99
73734;BMP280;62039;50.000;9.064;2023-06-24T14:30:27;100868.00;;;32.90
73734;BMP280;62039;50.000;9.064;2023-06-24T14:32:54;100866.75;;;32.82
73734;BMP280;62039;50.000;9.064;2023-06-24T14:35:21;100862.53;;;32.76